createdAt,value
2023-04-03T00:02:33.647Z,0.99
2023-04-03T00:05:35.392Z,1.00
2023-04-03T00:08:37.150Z,0.94
2023-04-03T00:11:40.148Z,0.91
2023-04-03T00:14:42.008Z,0.88
2023-04-03T00:17:43.841Z,0.88
2023-04-03T00:20:45.546Z,0.85
2023-04-03T00:23:47.248Z,0.86
2023-04-03T00:26:50.596Z,0.82
2023-04-03T00:29:54.303Z,0.79
2023-04-03T00:32:56.541Z,0.73
2023-04-03T00:35:58.397Z,0.68
2023-04-03T00:39:00.323Z,0.66
2023-04-03T00:42:05.530Z,0.68
2023-04-03T00:45:28.113Z,0.64
2023-04-03T00:48:31.689Z,0.61
2023-04-03T00:51:33.658Z,0.59
2023-04-03T00:54:37.060Z,0.54
2023-04-03T00:57:41.153Z,0.48
2023-04-03T01:00:48.588Z,0.43
2023-04-03T01:03:51.210Z,0.43
2023-04-03T01:06:53.222Z,0.41
2023-04-03T01:09:57.591Z,0.37
2023-04-03T01:13:00.791Z,0.34
2023-04-03T01:16:04.325Z,0.29
2023-04-03T01:19:09.519Z,0.27
2023-04-03T01:22:19.290Z,0.22
2023-04-03T01:25:20.937Z,0.20
2023-04-03T01:28:25.313Z,0.21
2023-04-03T01:31:28.902Z,0.16
2023-04-03T01:34:33.029Z,0.11
2023-04-03T01:37:35.800Z,0.10
2023-04-03T01:40:38.112Z,0.11
2023-04-03T01:43:40.524Z,0.12
2023-04-03T01:46:43.366Z,0.08
2023-04-03T01:49:46.741Z,-0.02
2023-04-03T01:52:48.508Z,0.02
2023-04-03T01:55:50.439Z,0.02
2023-04-03T01:58:52.586Z,-0.01
2023-04-03T02:01:54.255Z,-0.07
2023-04-03T02:04:57.233Z,-0.08
2023-04-03T02:07:58.824Z,-0.07
2023-04-03T02:11:00.876Z,-0.09
2023-04-03T02:14:02.965Z,-0.12
2023-04-03T02:17:09.803Z,-0.12
2023-04-03T02:20:13.059Z,-0.14
2023-04-03T02:23:15.047Z,-0.18
2023-04-03T02:26:16.813Z,-0.21
2023-04-03T02:29:20.751Z,-0.24
2023-04-03T02:32:22.717Z,-0.24
2023-04-03T02:35:26.083Z,-0.25
2023-04-03T02:38:29.813Z,-0.26
2023-04-03T02:41:36.042Z,-0.33
2023-04-03T02:44:40.385Z,-0.38
2023-04-03T02:47:42.382Z,-0.40
2023-04-03T02:50:46.288Z,-0.42
2023-04-03T02:53:48.001Z,-0.48
2023-04-03T02:56:54.576Z,-0.44
2023-04-03T02:59:56.276Z,-0.45
2023-04-03T03:02:58.068Z,-0.51
2023-04-03T03:06:05.392Z,-0.59
2023-04-03T03:09:07.405Z,-0.63
2023-04-03T03:12:09.121Z,-0.61
2023-04-03T03:15:11.362Z,-0.63
2023-04-03T03:18:13.404Z,-0.65
2023-04-03T03:21:16.764Z,-0.74
2023-04-03T03:24:18.503Z,-0.77
2023-04-03T03:27:20.257Z,-0.77
2023-04-03T03:30:21.998Z,-0.88
2023-04-03T03:33:23.841Z,-0.90
2023-04-03T03:36:27.129Z,-0.77
2023-04-03T03:39:29.331Z,-0.81
2023-04-03T03:42:32.157Z,-0.80
2023-04-03T03:45:33.892Z,-0.82
2023-04-03T03:48:35.703Z,-0.78
2023-04-03T03:51:38.962Z,-0.77
2023-04-03T03:54:41.546Z,-0.76
2023-04-03T03:57:43.486Z,-0.76
2023-04-03T04:00:46.126Z,-0.77
2023-04-03T04:03:47.963Z,-0.82
2023-04-03T04:06:55.739Z,-0.84
2023-04-03T04:09:57.416Z,-0.85
2023-04-03T04:12:59.063Z,-0.88
2023-04-03T04:16:03.234Z,-0.89
2023-04-03T04:19:07.601Z,-0.91
2023-04-03T04:22:12.621Z,-0.89
2023-04-03T04:25:14.586Z,-0.92
2023-04-03T04:28:16.968Z,-0.98
2023-04-03T04:31:19.242Z,-1.00
2023-04-03T04:34:21.670Z,-1.04
2023-04-03T04:37:24.835Z,-1.01
2023-04-03T04:40:27.809Z,-1.03
2023-04-03T04:43:29.658Z,-1.08
2023-04-03T04:46:31.525Z,-1.10
2023-04-03T04:49:34.517Z,-1.17
2023-04-03T04:52:37.793Z,-1.16
2023-04-03T04:55:40.268Z,-1.14
2023-04-03T04:58:42.522Z,-1.15
2023-04-03T05:01:44.169Z,-1.14
2023-04-03T05:04:52.675Z,-1.14
2023-04-03T05:07:59.999Z,-1.13
2023-04-03T05:11:01.865Z,-1.15
2023-04-03T05:14:07.447Z,-1.15
2023-04-03T05:17:10.369Z,-1.13
2023-04-03T05:20:16.015Z,-1.14
2023-04-03T05:23:22.657Z,-1.16
2023-04-03T05:26:24.481Z,-1.18
2023-04-03T05:29:26.345Z,-1.12
2023-04-03T05:32:29.836Z,-1.11
2023-04-03T05:35:45.251Z,-1.09
2023-04-03T05:38:53.770Z,-1.06
2023-04-03T05:41:55.788Z,-1.03
2023-04-03T05:44:58.084Z,-1.03
2023-04-03T05:48:00.182Z,-0.97
2023-04-03T05:51:02.789Z,-0.90
2023-04-03T05:54:10.881Z,-0.87
2023-04-03T05:57:13.006Z,-0.80
2023-04-03T06:00:16.932Z,-0.77
2023-04-03T06:03:26.619Z,-0.67
2023-04-03T06:06:43.595Z,-0.57
2023-04-03T06:09:46.713Z,-0.46
2023-04-03T06:12:48.331Z,-0.46
2023-04-03T06:15:50.240Z,-0.46
2023-04-03T06:18:52.290Z,-0.41
2023-04-03T06:21:53.903Z,-0.24
2023-04-03T06:24:57.465Z,-0.18
2023-04-03T06:27:59.113Z,-0.16
2023-04-03T06:31:00.808Z,-0.09
2023-04-03T06:34:02.875Z,-0.04
2023-04-03T06:37:04.592Z,0.06
2023-04-03T06:40:15.649Z,0.12
2023-04-03T06:43:17.536Z,0.23
2023-04-03T06:46:20.257Z,0.26
2023-04-03T06:49:22.679Z,0.40
2023-04-03T06:52:24.521Z,0.42
2023-04-03T06:55:27.834Z,0.51
2023-04-03T06:58:29.362Z,0.64
2023-04-03T07:01:31.082Z,0.72
2023-04-03T07:04:33.006Z,0.73
2023-04-03T07:07:35.418Z,0.67
2023-04-03T07:10:38.782Z,0.68
2023-04-03T07:13:40.397Z,0.72
2023-04-03T07:16:42.839Z,0.81
2023-04-03T07:19:44.576Z,0.73
2023-04-03T07:22:46.533Z,0.56
2023-04-03T07:25:52.698Z,0.57
2023-04-03T07:28:54.323Z,0.86
2023-04-03T07:31:57.095Z,0.88
2023-04-03T07:34:58.677Z,1.09
2023-04-03T07:38:00.515Z,1.31
2023-04-03T07:41:04.261Z,1.34
2023-04-03T07:44:06.611Z,1.39
2023-04-03T07:47:08.919Z,1.41
2023-04-03T07:50:11.063Z,1.65
2023-04-03T07:53:12.633Z,1.68
2023-04-03T07:56:16.085Z,1.60
2023-04-03T07:59:18.358Z,1.52
2023-04-03T08:02:19.969Z,1.55
2023-04-03T08:05:22.677Z,1.69
2023-04-03T08:08:24.372Z,1.69
2023-04-03T08:11:28.293Z,1.69
2023-04-03T08:14:31.297Z,1.74
2023-04-03T08:20:53.996Z,2.26
2023-04-03T08:23:55.763Z,2.32
2023-04-03T08:26:58.839Z,2.26
2023-04-03T08:30:01.136Z,2.43
2023-04-03T08:33:03.535Z,2.46
2023-04-03T08:36:05.889Z,2.53
2023-04-03T08:39:07.620Z,2.51
2023-04-03T08:42:16.598Z,2.82
2023-04-03T08:45:20.380Z,2.84
2023-04-03T08:48:25.036Z,3.09
2023-04-03T08:51:27.152Z,3.15
2023-04-03T08:54:32.918Z,3.05
2023-04-03T08:57:39.860Z,3.07
2023-04-03T09:00:46.521Z,3.28
2023-04-03T09:03:48.468Z,3.39
2023-04-03T09:06:54.126Z,3.46
2023-04-03T09:09:56.430Z,3.37
2023-04-03T09:13:02.402Z,3.54
2023-04-03T09:16:07.180Z,3.52
2023-04-03T09:19:14.032Z,3.66
2023-04-03T09:22:18.736Z,3.76
2023-04-03T09:25:23.083Z,3.85
2023-04-03T09:28:27.880Z,4.14
2023-04-03T09:31:36.553Z,4.31
2023-04-03T09:34:38.300Z,4.21
2023-04-03T09:37:44.220Z,4.20
2023-04-03T09:40:46.932Z,4.29
2023-04-03T09:43:54.915Z,4.35
2023-04-03T09:46:56.681Z,4.45
2023-04-03T09:50:20.596Z,4.47
2023-04-03T09:53:27.764Z,4.51
2023-04-03T09:56:30.644Z,4.74
2023-04-03T09:59:34.074Z,3.86
2023-04-03T10:02:39.410Z,4.14
2023-04-03T10:05:42.126Z,3.91
2023-04-03T10:08:43.735Z,3.64
2023-04-03T10:11:58.186Z,3.70
2023-04-03T10:15:04.426Z,3.88
2023-04-03T10:18:21.779Z,4.21
2023-04-03T10:21:33.642Z,4.55
2023-04-03T10:24:37.559Z,4.53
2023-04-03T10:27:46.349Z,4.76
2023-04-03T10:30:53.499Z,5.07
2023-04-03T10:34:01.130Z,5.29
2023-04-03T10:37:06.175Z,5.26
2023-04-03T10:40:15.806Z,5.35
2023-04-03T10:43:20.563Z,5.07
2023-04-03T10:46:28.039Z,4.68
2023-04-03T10:49:36.035Z,4.40
2023-04-03T10:52:41.957Z,4.09
2023-04-03T10:55:49.207Z,4.32
2023-04-03T10:58:55.359Z,4.86
2023-04-03T11:02:00.691Z,5.32
2023-04-03T11:05:06.136Z,5.97
2023-04-03T11:08:13.118Z,6.09
2023-04-03T11:11:17.260Z,5.80
2023-04-03T11:14:23.530Z,5.35
2023-04-03T11:17:29.749Z,5.09
2023-04-03T11:20:34.532Z,5.64
2023-04-03T11:23:48.868Z,5.99
2023-04-03T11:26:52.496Z,5.74
2023-04-03T11:29:54.594Z,6.07
2023-04-03T11:33:17.163Z,6.14
2023-04-03T11:36:26.705Z,5.90
2023-04-03T11:39:33.430Z,5.72
2023-04-03T11:42:37.343Z,5.43
2023-04-03T11:45:50.922Z,5.38
2023-04-03T11:48:54.230Z,5.39
2023-04-03T11:51:58.016Z,5.63
2023-04-03T11:54:59.590Z,5.38
2023-04-03T11:58:04.943Z,5.12
2023-04-03T12:01:07.747Z,4.95
2023-04-03T12:04:13.798Z,5.27
2023-04-03T12:07:19.042Z,5.22
2023-04-03T12:10:31.834Z,5.26
2023-04-03T12:13:34.268Z,5.25
2023-04-03T12:16:43.783Z,4.98
2023-04-03T12:19:47.494Z,4.86
2023-04-03T12:23:05.148Z,5.02
2023-04-03T12:26:23.901Z,4.78
2023-04-03T12:29:29.819Z,4.82
2023-04-03T12:33:05.697Z,4.71
2023-04-03T12:36:12.392Z,5.01
2023-04-03T12:39:24.682Z,5.09
2023-04-03T12:42:35.804Z,5.27
2023-04-03T12:45:42.729Z,5.12
2023-04-03T12:48:49.262Z,5.10
2023-04-03T12:51:53.617Z,5.12
2023-04-03T12:54:55.863Z,5.57
2023-04-03T12:58:14.091Z,5.48
2023-04-03T13:01:19.350Z,5.38
2023-04-03T13:04:21.180Z,5.81
2023-04-03T13:07:23.762Z,6.10
2023-04-03T13:10:25.415Z,6.16
2023-04-03T13:13:28.848Z,6.58
2023-04-03T13:16:30.615Z,6.92
2023-04-03T13:19:32.412Z,6.35
2023-04-03T13:22:40.406Z,6.55
2023-04-03T13:25:43.427Z,6.34
2023-04-03T13:28:48.481Z,6.06
2023-04-03T13:31:53.445Z,6.03
2023-04-03T13:34:55.776Z,5.94
2023-04-03T13:38:00.170Z,5.87
2023-04-03T13:41:04.182Z,5.98
2023-04-03T13:44:24.711Z,5.70
2023-04-03T13:47:43.354Z,5.73
2023-04-03T13:50:52.892Z,5.57
2023-04-03T13:53:55.638Z,5.40
2023-04-03T13:56:58.677Z,5.38
2023-04-03T14:00:00.774Z,5.25
2023-04-03T14:03:12.529Z,5.01
2023-04-03T14:06:16.524Z,5.26
2023-04-03T14:09:18.890Z,5.52
2023-04-03T14:12:31.327Z,5.95
2023-04-03T14:15:33.931Z,6.75
2023-04-03T14:18:37.803Z,7.19
2023-04-03T14:21:39.390Z,7.56
2023-04-03T14:24:41.463Z,7.64
2023-04-03T14:27:44.336Z,6.89
2023-04-03T14:30:46.725Z,6.94
2023-04-03T14:33:50.041Z,6.46
2023-04-03T14:36:53.422Z,6.04
2023-04-03T14:39:55.356Z,5.86
2023-04-03T14:42:58.449Z,6.16
2023-04-03T14:46:00.260Z,6.73
2023-04-03T14:49:03.761Z,6.25
2023-04-03T14:52:05.424Z,6.55
2023-04-03T14:55:07.508Z,7.24
2023-04-03T14:58:09.895Z,7.44
2023-04-03T15:01:11.770Z,7.00
2023-04-03T15:04:15.592Z,6.49
2023-04-03T15:07:17.524Z,5.84
2023-04-03T15:10:20.457Z,6.36
2023-04-03T15:13:22.602Z,6.79
2023-04-03T15:16:30.320Z,6.89
2023-04-03T15:19:37.003Z,6.83
2023-04-03T15:22:41.400Z,7.25
2023-04-03T15:25:43.805Z,7.43
2023-04-03T15:28:45.807Z,6.77
2023-04-03T15:31:47.572Z,6.37
2023-04-03T15:34:51.424Z,6.23
2023-04-03T15:37:55.316Z,6.06
2023-04-03T15:40:57.131Z,5.98
2023-04-03T15:43:58.687Z,5.88
2023-04-03T15:47:00.736Z,5.72
2023-04-03T15:50:06.956Z,5.52
2023-04-03T15:53:09.797Z,5.50
2023-04-03T15:56:12.889Z,6.00
2023-04-03T15:59:14.648Z,5.92
2023-04-03T16:02:16.277Z,5.95
2023-04-03T16:05:19.945Z,5.89
2023-04-03T16:08:23.000Z,6.31
2023-04-03T16:11:24.570Z,6.28
2023-04-03T16:14:26.102Z,6.52
2023-04-03T16:17:28.383Z,6.52
2023-04-03T16:20:31.777Z,6.35
2023-04-03T16:23:33.417Z,6.21
2023-04-03T16:26:35.088Z,6.03
2023-04-03T16:29:37.307Z,5.68
2023-04-03T16:32:40.031Z,5.49
2023-04-03T16:35:44.264Z,5.27
2023-04-03T16:38:45.822Z,5.15
2023-04-03T16:41:47.542Z,5.00
2023-04-03T16:44:49.320Z,4.87
2023-04-03T16:47:51.180Z,5.04
2023-04-03T16:50:54.499Z,5.18
2023-04-03T16:53:56.327Z,5.39
2023-04-03T16:56:58.430Z,5.64
2023-04-03T17:00:00.008Z,5.97
2023-04-03T17:03:04.817Z,6.09
2023-04-03T17:06:07.887Z,6.12
2023-04-03T17:09:10.388Z,6.15
2023-04-03T17:12:11.976Z,5.69
2023-04-03T17:15:13.600Z,5.62
2023-04-03T17:18:15.772Z,5.52
2023-04-03T17:21:18.859Z,5.47
2023-04-03T17:24:20.523Z,5.32
2023-04-03T17:27:22.185Z,5.14
2023-04-03T17:30:24.600Z,4.90
2023-04-03T17:33:26.687Z,4.64
2023-04-03T17:36:29.936Z,4.57
2023-04-03T17:39:31.649Z,4.42
2023-04-03T17:42:33.571Z,4.32
2023-04-03T17:45:35.229Z,4.24
2023-04-03T17:48:37.666Z,4.18
2023-04-03T17:51:40.964Z,4.13
2023-04-03T17:54:42.828Z,4.03
2023-04-03T17:57:44.618Z,3.96
2023-04-03T18:00:46.306Z,3.91
2023-04-03T18:03:49.069Z,3.84
2023-04-03T18:06:53.706Z,3.78
2023-04-03T18:09:56.412Z,3.67
2023-04-03T18:12:58.225Z,3.60
2023-04-03T18:15:59.899Z,3.59
2023-04-03T18:19:21.296Z,3.49
2023-04-03T18:22:25.441Z,3.45
2023-04-03T18:25:27.048Z,3.36
2023-04-03T18:28:29.635Z,3.34
2023-04-03T18:31:33.234Z,3.30
2023-04-03T18:34:34.847Z,3.24
2023-04-03T18:37:38.842Z,3.19
2023-04-03T18:40:42.473Z,3.09
2023-04-03T18:43:44.403Z,3.07
2023-04-03T18:46:46.431Z,3.04
2023-04-03T18:49:48.029Z,3.03
2023-04-03T18:52:51.007Z,3.01
2023-04-03T18:55:52.608Z,2.95
2023-04-03T18:58:54.445Z,2.87
2023-04-03T19:01:56.158Z,2.79
2023-04-03T19:04:58.031Z,2.73
2023-04-03T19:08:01.143Z,2.69
2023-04-03T19:11:02.789Z,2.65
2023-04-03T19:14:15.836Z,2.59
2023-04-03T19:17:17.987Z,2.56
2023-04-03T19:20:20.019Z,2.54
2023-04-03T19:23:23.906Z,2.53
2023-04-03T19:26:27.577Z,2.49
2023-04-03T19:29:30.279Z,2.47
2023-04-03T19:32:31.980Z,2.43
2023-04-03T19:35:33.797Z,2.36
2023-04-03T19:38:36.948Z,2.29
2023-04-03T19:41:41.916Z,2.24
2023-04-03T19:44:43.828Z,2.21
2023-04-03T19:47:45.679Z,2.19
2023-04-03T19:50:47.334Z,2.16
2023-04-03T19:53:50.419Z,2.13
2023-04-03T19:56:52.305Z,2.13
2023-04-03T19:59:54.073Z,2.10
2023-04-03T20:02:56.722Z,2.08
2023-04-03T20:05:58.425Z,2.08
2023-04-03T20:09:04.711Z,2.09
2023-04-03T20:12:09.485Z,2.06
2023-04-03T20:15:11.470Z,1.98
2023-04-03T20:18:18.167Z,1.93
2023-04-03T20:21:19.918Z,1.94
2023-04-03T20:24:22.919Z,1.93
2023-04-03T20:27:24.927Z,1.88
2023-04-03T20:30:26.515Z,1.82
2023-04-03T20:33:28.276Z,1.81
2023-04-03T20:36:31.214Z,1.72
2023-04-03T20:39:34.441Z,1.65
2023-04-03T20:42:35.999Z,1.61
2023-04-03T20:45:37.937Z,1.60
2023-04-03T20:48:41.690Z,1.58
2023-04-03T20:51:44.070Z,1.57
2023-04-03T20:54:47.371Z,1.57
2023-04-03T20:57:54.540Z,1.54
2023-04-03T21:00:56.567Z,1.52
2023-04-03T21:04:02.595Z,1.55
2023-04-03T21:07:23.068Z,1.56
2023-04-03T21:10:43.561Z,1.51
2023-04-03T21:14:06.524Z,1.45
2023-04-03T21:17:08.351Z,1.40
2023-04-03T21:20:11.202Z,1.39
2023-04-03T21:23:12.932Z,1.40
2023-04-03T21:26:14.478Z,1.39
2023-04-03T21:29:16.599Z,1.32
2023-04-03T21:32:18.122Z,1.27
2023-04-03T21:35:21.446Z,1.26
2023-04-03T21:38:23.218Z,1.16
2023-04-03T21:41:24.728Z,1.12
2023-04-03T21:44:29.138Z,1.11
2023-04-03T21:47:30.891Z,1.08
2023-04-03T21:50:33.914Z,1.07
2023-04-03T21:53:36.179Z,1.02
2023-04-03T21:56:37.710Z,1.04
2023-04-03T21:59:39.555Z,1.07
2023-04-03T22:02:41.260Z,1.08
2023-04-03T22:05:44.324Z,1.08
2023-04-03T22:08:46.044Z,1.06
2023-04-03T22:11:48.933Z,1.03
2023-04-03T22:14:50.700Z,0.99
2023-04-03T22:17:52.429Z,0.98
2023-04-03T22:20:56.076Z,0.98
2023-04-03T22:23:58.560Z,0.96
2023-04-03T22:27:00.431Z,0.91
2023-04-03T22:30:02.094Z,0.80
2023-04-03T22:33:03.767Z,0.69
2023-04-03T22:36:07.354Z,0.59
2023-04-03T22:39:10.681Z,0.53
2023-04-03T22:42:12.156Z,0.51
2023-04-03T22:45:14.199Z,0.52
2023-04-03T22:48:18.622Z,0.50
2023-04-03T22:51:21.690Z,0.48
2023-04-03T22:54:23.241Z,0.48
2023-04-03T22:57:25.105Z,0.52
2023-04-03T23:00:28.197Z,0.52
2023-04-03T23:03:29.701Z,0.54
2023-04-03T23:06:34.095Z,0.53
2023-04-03T23:13:07.974Z,0.46
2023-04-03T23:16:09.775Z,0.47
2023-04-03T23:19:11.396Z,0.48
2023-04-03T23:22:15.068Z,0.48
2023-04-03T23:25:16.615Z,0.46
2023-04-03T23:28:18.787Z,0.40
2023-04-03T23:31:20.346Z,0.37
2023-04-03T23:34:22.261Z,0.31
2023-04-03T23:37:26.027Z,0.28
2023-04-03T23:40:28.203Z,0.23
2023-04-03T23:43:31.168Z,0.26
2023-04-03T23:46:35.664Z,0.25
2023-04-03T23:49:37.234Z,0.24
2023-04-03T23:52:40.096Z,0.20
2023-04-03T23:55:42.103Z,0.13
2023-04-03T23:58:43.809Z,0.08
